sensor_id;sensor_type;location;lat;lon;timestamp;P1;durP1;ratioP1;P2;durP2;ratioP2
18286;SDS011;9269;50.838;12.094;2022-12-07T00:00:35;11.90;;;8.83;;
18286;SDS011;9269;50.838;12.094;2022-12-07T00:03:05;12.00;;;8.20;;
18286;SDS011;9269;50.838;12.094;2022-12-07T00:05:34;11.87;;;9.17;;
18286;SDS011;9269;50.838;12.094;2022-12-07T00:08:02;12.63;;;8.40;;
18286;SDS011;9269;50.838;12.094;2022-12-07T00:10:32;12.27;;;8.30;;
18286;SDS011;9269;50.838;12.094;2022-12-07T00:13:02;12.10;;;9.30;;
18286;SDS011;9269;50.838;12.094;2022-12-07T00:15:33;13.03;;;9.03;;
18286;SDS011;9269;50.838;12.094;2022-12-07T00:18:02;12.70;;;9.13;;
18286;SDS011;9269;50.838;12.094;2022-12-07T00:20:32;12.47;;;8.73;;
18286;SDS011;9269;50.838;12.094;2022-12-07T00:23:01;12.50;;;8.97;;
18286;SDS011;9269;50.838;12.094;2022-12-07T00:25:31;11.23;;;8.70;;
18286;SDS011;9269;50.838;12.094;2022-12-07T00:28:00;12.93;;;9.10;;
18286;SDS011;9269;50.838;12.094;2022-12-07T00:30:28;13.77;;;9.07;;
18286;SDS011;9269;50.838;12.094;2022-12-07T00:32:58;11.30;;;8.20;;
18286;SDS011;9269;50.838;12.094;2022-12-07T00:35:27;11.40;;;8.40;;
18286;SDS011;9269;50.838;12.094;2022-12-07T00:37:56;12.47;;;8.20;;
18286;SDS011;9269;50.838;12.094;2022-12-07T00:40:25;10.87;;;8.27;;
18286;SDS011;9269;50.838;12.094;2022-12-07T00:42:53;10.00;;;8.00;;
18286;SDS011;9269;50.838;12.094;2022-12-07T00:45:22;12.03;;;8.23;;
18286;SDS011;9269;50.838;12.094;2022-12-07T00:47:51;10.40;;;7.43;;
18286;SDS011;9269;50.838;12.094;2022-12-07T00:50:20;9.67;;;7.20;;
18286;SDS011;9269;50.838;12.094;2022-12-07T00:52:50;10.67;;;8.07;;
18286;SDS011;9269;50.838;12.094;2022-12-07T00:55:19;7.87;;;6.20;;
18286;SDS011;9269;50.838;12.094;2022-12-07T00:57:48;9.03;;;6.73;;
18286;SDS011;9269;50.838;12.094;2022-12-07T01:00:18;7.03;;;6.30;;
18286;SDS011;9269;50.838;12.094;2022-12-07T01:02:47;8.47;;;6.67;;
18286;SDS011;9269;50.838;12.094;2022-12-07T01:05:17;9.40;;;6.93;;
18286;SDS011;9269;50.838;12.094;2022-12-07T01:07:46;8.90;;;6.53;;
18286;SDS011;9269;50.838;12.094;2022-12-07T01:10:17;9.87;;;6.93;;
18286;SDS011;9269;50.838;12.094;2022-12-07T01:12:46;8.33;;;6.37;;
18286;SDS011;9269;50.838;12.094;2022-12-07T01:15:14;8.40;;;6.70;;
18286;SDS011;9269;50.838;12.094;2022-12-07T01:17:43;7.70;;;5.80;;
18286;SDS011;9269;50.838;12.094;2022-12-07T01:20:12;8.43;;;6.30;;
18286;SDS011;9269;50.838;12.094;2022-12-07T01:22:42;7.67;;;6.03;;
18286;SDS011;9269;50.838;12.094;2022-12-07T01:25:13;8.43;;;6.50;;
18286;SDS011;9269;50.838;12.094;2022-12-07T01:27:42;8.07;;;6.30;;
18286;SDS011;9269;50.838;12.094;2022-12-07T01:30:14;7.63;;;5.80;;
18286;SDS011;9269;50.838;12.094;2022-12-07T01:32:44;7.63;;;6.33;;
18286;SDS011;9269;50.838;12.094;2022-12-07T01:35:12;8.27;;;6.73;;
18286;SDS011;9269;50.838;12.094;2022-12-07T01:37:41;8.97;;;6.30;;
18286;SDS011;9269;50.838;12.094;2022-12-07T01:40:10;7.67;;;6.20;;
18286;SDS011;9269;50.838;12.094;2022-12-07T01:42:39;8.47;;;6.17;;
18286;SDS011;9269;50.838;12.094;2022-12-07T01:48:07;11.30;;;5.90;;
18286;SDS011;9269;50.838;12.094;2022-12-07T01:50:38;8.33;;;6.47;;
18286;SDS011;9269;50.838;12.094;2022-12-07T01:53:10;6.80;;;5.63;;
18286;SDS011;9269;50.838;12.094;2022-12-07T01:55:40;6.63;;;5.70;;
18286;SDS011;9269;50.838;12.094;2022-12-07T01:58:12;7.23;;;5.50;;
18286;SDS011;9269;50.838;12.094;2022-12-07T02:00:41;7.30;;;5.53;;
18286;SDS011;9269;50.838;12.094;2022-12-07T02:03:13;7.60;;;6.03;;
18286;SDS011;9269;50.838;12.094;2022-12-07T02:05:46;6.30;;;4.90;;
18286;SDS011;9269;50.838;12.094;2022-12-07T02:08:18;8.07;;;5.50;;
18286;SDS011;9269;50.838;12.094;2022-12-07T02:10:48;6.80;;;5.27;;
18286;SDS011;9269;50.838;12.094;2022-12-07T02:13:18;5.93;;;4.63;;
18286;SDS011;9269;50.838;12.094;2022-12-07T02:15:52;5.70;;;4.63;;
18286;SDS011;9269;50.838;12.094;2022-12-07T02:18:41;5.43;;;4.53;;
18286;SDS011;9269;50.838;12.094;2022-12-07T02:21:20;6.13;;;5.13;;
18286;SDS011;9269;50.838;12.094;2022-12-07T02:24:08;5.77;;;5.17;;
18286;SDS011;9269;50.838;12.094;2022-12-07T02:26:48;5.60;;;4.40;;
18286;SDS011;9269;50.838;12.094;2022-12-07T02:29:39;5.67;;;4.67;;
18286;SDS011;9269;50.838;12.094;2022-12-07T02:32:13;5.50;;;4.50;;
18286;SDS011;9269;50.838;12.094;2022-12-07T02:34:49;6.73;;;5.00;;
18286;SDS011;9269;50.838;12.094;2022-12-07T02:37:27;5.93;;;4.70;;
18286;SDS011;9269;50.838;12.094;2022-12-07T02:40:04;5.33;;;4.83;;
18286;SDS011;9269;50.838;12.094;2022-12-07T02:42:40;6.60;;;4.60;;
18286;SDS011;9269;50.838;12.094;2022-12-07T02:45:15;5.50;;;4.00;;
18286;SDS011;9269;50.838;12.094;2022-12-07T02:47:48;5.03;;;4.17;;
18286;SDS011;9269;50.838;12.094;2022-12-07T02:50:21;6.10;;;4.63;;
18286;SDS011;9269;50.838;12.094;2022-12-07T02:52:50;4.80;;;4.30;;
18286;SDS011;9269;50.838;12.094;2022-12-07T02:55:19;5.70;;;4.57;;
18286;SDS011;9269;50.838;12.094;2022-12-07T02:57:54;5.07;;;4.20;;
18286;SDS011;9269;50.838;12.094;2022-12-07T03:00:36;5.70;;;4.20;;
18286;SDS011;9269;50.838;12.094;2022-12-07T03:03:12;5.17;;;4.20;;
18286;SDS011;9269;50.838;12.094;2022-12-07T03:08:42;5.17;;;3.70;;
18286;SDS011;9269;50.838;12.094;2022-12-07T03:11:16;4.43;;;3.97;;
18286;SDS011;9269;50.838;12.094;2022-12-07T03:13:53;5.50;;;4.23;;
18286;SDS011;9269;50.838;12.094;2022-12-07T03:16:28;4.80;;;4.07;;
18286;SDS011;9269;50.838;12.094;2022-12-07T03:19:02;5.90;;;3.97;;
18286;SDS011;9269;50.838;12.094;2022-12-07T03:21:36;5.37;;;4.00;;
18286;SDS011;9269;50.838;12.094;2022-12-07T03:24:11;4.67;;;4.17;;
18286;SDS011;9269;50.838;12.094;2022-12-07T03:26:42;4.73;;;4.07;;
18286;SDS011;9269;50.838;12.094;2022-12-07T03:29:17;5.83;;;4.40;;
18286;SDS011;9269;50.838;12.094;2022-12-07T03:32:02;6.10;;;4.33;;
18286;SDS011;9269;50.838;12.094;2022-12-07T03:34:37;6.77;;;4.40;;
18286;SDS011;9269;50.838;12.094;2022-12-07T03:37:12;5.73;;;4.27;;
18286;SDS011;9269;50.838;12.094;2022-12-07T03:39:49;4.90;;;4.20;;
18286;SDS011;9269;50.838;12.094;2022-12-07T03:42:27;6.40;;;4.50;;
18286;SDS011;9269;50.838;12.094;2022-12-07T03:44:56;5.17;;;4.20;;
18286;SDS011;9269;50.838;12.094;2022-12-07T03:47:26;6.47;;;4.17;;
18286;SDS011;9269;50.838;12.094;2022-12-07T03:50:02;5.03;;;4.10;;
18286;SDS011;9269;50.838;12.094;2022-12-07T03:52:37;5.00;;;4.07;;
18286;SDS011;9269;50.838;12.094;2022-12-07T03:55:10;5.23;;;4.23;;
18286;SDS011;9269;50.838;12.094;2022-12-07T03:57:43;6.13;;;4.50;;
18286;SDS011;9269;50.838;12.094;2022-12-07T04:00:13;4.63;;;4.10;;
18286;SDS011;9269;50.838;12.094;2022-12-07T04:02:43;5.77;;;3.87;;
18286;SDS011;9269;50.838;12.094;2022-12-07T04:05:12;6.37;;;4.20;;
18286;SDS011;9269;50.838;12.094;2022-12-07T04:07:41;5.20;;;3.97;;
18286;SDS011;9269;50.838;12.094;2022-12-07T04:10:10;4.30;;;3.90;;
18286;SDS011;9269;50.838;12.094;2022-12-07T04:12:39;7.53;;;4.23;;
18286;SDS011;9269;50.838;12.094;2022-12-07T04:15:08;4.40;;;3.97;;
18286;SDS011;9269;50.838;12.094;2022-12-07T04:17:38;6.20;;;3.67;;
18286;SDS011;9269;50.838;12.094;2022-12-07T04:20:09;4.70;;;3.87;;
18286;SDS011;9269;50.838;12.094;2022-12-07T04:22:40;4.20;;;3.80;;
18286;SDS011;9269;50.838;12.094;2022-12-07T04:25:08;5.20;;;4.00;;
18286;SDS011;9269;50.838;12.094;2022-12-07T04:27:37;4.97;;;4.00;;
18286;SDS011;9269;50.838;12.094;2022-12-07T04:30:06;5.67;;;4.13;;
18286;SDS011;9269;50.838;12.094;2022-12-07T04:32:36;4.27;;;3.60;;
18286;SDS011;9269;50.838;12.094;2022-12-07T04:35:05;6.27;;;4.10;;
18286;SDS011;9269;50.838;12.094;2022-12-07T04:37:37;5.17;;;4.00;;
18286;SDS011;9269;50.838;12.094;2022-12-07T04:40:07;4.50;;;3.70;;
18286;SDS011;9269;50.838;12.094;2022-12-07T04:42:38;4.87;;;4.10;;
18286;SDS011;9269;50.838;12.094;2022-12-07T04:45:06;4.70;;;3.80;;
18286;SDS011;9269;50.838;12.094;2022-12-07T04:47:36;5.07;;;3.70;;
18286;SDS011;9269;50.838;12.094;2022-12-07T04:50:05;5.90;;;4.20;;
18286;SDS011;9269;50.838;12.094;2022-12-07T04:52:35;4.13;;;3.30;;
18286;SDS011;9269;50.838;12.094;2022-12-07T04:55:04;5.50;;;3.93;;
18286;SDS011;9269;50.838;12.094;2022-12-07T04:57:32;6.57;;;4.40;;
18286;SDS011;9269;50.838;12.094;2022-12-07T05:00:01;4.80;;;3.83;;
18286;SDS011;9269;50.838;12.094;2022-12-07T05:02:31;4.63;;;3.70;;
18286;SDS011;9269;50.838;12.094;2022-12-07T05:05:00;5.17;;;3.70;;
18286;SDS011;9269;50.838;12.094;2022-12-07T05:07:28;4.53;;;4.00;;
18286;SDS011;9269;50.838;12.094;2022-12-07T05:09:58;5.40;;;4.03;;
18286;SDS011;9269;50.838;12.094;2022-12-07T05:12:27;5.07;;;4.23;;
18286;SDS011;9269;50.838;12.094;2022-12-07T05:14:55;5.37;;;4.20;;
18286;SDS011;9269;50.838;12.094;2022-12-07T05:17:23;5.00;;;4.40;;
18286;SDS011;9269;50.838;12.094;2022-12-07T05:19:52;5.30;;;4.10;;
18286;SDS011;9269;50.838;12.094;2022-12-07T05:22:20;5.20;;;4.40;;
18286;SDS011;9269;50.838;12.094;2022-12-07T05:24:49;5.00;;;4.50;;
18286;SDS011;9269;50.838;12.094;2022-12-07T05:27:18;4.93;;;4.13;;
18286;SDS011;9269;50.838;12.094;2022-12-07T05:29:47;5.03;;;4.33;;
18286;SDS011;9269;50.838;12.094;2022-12-07T05:32:17;5.63;;;4.50;;
18286;SDS011;9269;50.838;12.094;2022-12-07T05:34:46;5.83;;;4.63;;
18286;SDS011;9269;50.838;12.094;2022-12-07T05:37:17;5.20;;;4.00;;
18286;SDS011;9269;50.838;12.094;2022-12-07T05:39:47;5.67;;;4.60;;
18286;SDS011;9269;50.838;12.094;2022-12-07T05:42:15;6.17;;;4.53;;
18286;SDS011;9269;50.838;12.094;2022-12-07T05:44:45;5.53;;;4.33;;
18286;SDS011;9269;50.838;12.094;2022-12-07T05:47:14;5.77;;;4.50;;
18286;SDS011;9269;50.838;12.094;2022-12-07T05:49:43;4.70;;;4.13;;
18286;SDS011;9269;50.838;12.094;2022-12-07T05:52:12;6.13;;;4.63;;
18286;SDS011;9269;50.838;12.094;2022-12-07T05:54:43;4.80;;;4.27;;
18286;SDS011;9269;50.838;12.094;2022-12-07T05:57:12;5.40;;;4.73;;
18286;SDS011;9269;50.838;12.094;2022-12-07T05:59:41;5.30;;;4.20;;
18286;SDS011;9269;50.838;12.094;2022-12-07T06:02:10;5.47;;;4.27;;
18286;SDS011;9269;50.838;12.094;2022-12-07T06:04:41;5.10;;;4.20;;
18286;SDS011;9269;50.838;12.094;2022-12-07T06:07:11;7.87;;;4.80;;
18286;SDS011;9269;50.838;12.094;2022-12-07T06:09:41;5.53;;;4.63;;
18286;SDS011;9269;50.838;12.094;2022-12-07T06:12:09;4.60;;;4.10;;
18286;SDS011;9269;50.838;12.094;2022-12-07T06:14:59;6.70;;;4.40;;
18286;SDS011;9269;50.838;12.094;2022-12-07T06:17:28;5.97;;;4.50;;
18286;SDS011;9269;50.838;12.094;2022-12-07T06:19:57;4.83;;;3.70;;
18286;SDS011;9269;50.838;12.094;2022-12-07T06:22:26;5.73;;;4.30;;
18286;SDS011;9269;50.838;12.094;2022-12-07T06:24:55;5.67;;;4.30;;
18286;SDS011;9269;50.838;12.094;2022-12-07T06:27:23;6.10;;;4.33;;
18286;SDS011;9269;50.838;12.094;2022-12-07T06:29:53;4.43;;;4.03;;
18286;SDS011;9269;50.838;12.094;2022-12-07T06:32:23;7.07;;;4.43;;
18286;SDS011;9269;50.838;12.094;2022-12-07T06:34:53;5.30;;;4.20;;
18286;SDS011;9269;50.838;12.094;2022-12-07T06:37:27;5.50;;;4.40;;
18286;SDS011;9269;50.838;12.094;2022-12-07T06:39:57;4.97;;;4.10;;
18286;SDS011;9269;50.838;12.094;2022-12-07T06:42:28;6.53;;;4.57;;
18286;SDS011;9269;50.838;12.094;2022-12-07T06:44:57;6.57;;;4.43;;
18286;SDS011;9269;50.838;12.094;2022-12-07T06:47:25;5.97;;;4.70;;
18286;SDS011;9269;50.838;12.094;2022-12-07T06:50:14;7.20;;;4.70;;
18286;SDS011;9269;50.838;12.094;2022-12-07T06:52:42;6.60;;;4.57;;
18286;SDS011;9269;50.838;12.094;2022-12-07T06:55:11;6.17;;;5.40;;
18286;SDS011;9269;50.838;12.094;2022-12-07T06:57:40;10.63;;;7.00;;
18286;SDS011;9269;50.838;12.094;2022-12-07T07:00:09;9.87;;;6.67;;
18286;SDS011;9269;50.838;12.094;2022-12-07T07:02:47;8.70;;;6.50;;
18286;SDS011;9269;50.838;12.094;2022-12-07T07:05:17;7.53;;;5.83;;
18286;SDS011;9269;50.838;12.094;2022-12-07T07:07:51;7.17;;;6.07;;
18286;SDS011;9269;50.838;12.094;2022-12-07T07:10:39;6.03;;;5.40;;
18286;SDS011;9269;50.838;12.094;2022-12-07T07:13:11;8.57;;;7.30;;
18286;SDS011;9269;50.838;12.094;2022-12-07T07:15:39;10.47;;;7.07;;
18286;SDS011;9269;50.838;12.094;2022-12-07T07:18:08;8.33;;;6.53;;
18286;SDS011;9269;50.838;12.094;2022-12-07T07:20:39;9.47;;;8.03;;
18286;SDS011;9269;50.838;12.094;2022-12-07T07:23:09;9.77;;;8.00;;
18286;SDS011;9269;50.838;12.094;2022-12-07T07:25:39;9.03;;;7.27;;
18286;SDS011;9269;50.838;12.094;2022-12-07T07:28:07;9.03;;;8.13;;
18286;SDS011;9269;50.838;12.094;2022-12-07T07:30:36;8.57;;;7.63;;
18286;SDS011;9269;50.838;12.094;2022-12-07T07:33:05;8.27;;;7.27;;
18286;SDS011;9269;50.838;12.094;2022-12-07T07:35:35;8.17;;;6.73;;
18286;SDS011;9269;50.838;12.094;2022-12-07T07:38:05;7.77;;;6.00;;
18286;SDS011;9269;50.838;12.094;2022-12-07T07:40:35;7.73;;;6.80;;
18286;SDS011;9269;50.838;12.094;2022-12-07T07:43:03;7.87;;;6.43;;
18286;SDS011;9269;50.838;12.094;2022-12-07T07:45:32;6.57;;;5.93;;
18286;SDS011;9269;50.838;12.094;2022-12-07T07:48:00;7.03;;;6.00;;
18286;SDS011;9269;50.838;12.094;2022-12-07T07:50:29;7.10;;;6.40;;
18286;SDS011;9269;50.838;12.094;2022-12-07T07:52:58;8.03;;;6.40;;
18286;SDS011;9269;50.838;12.094;2022-12-07T07:55:28;7.17;;;5.90;;
18286;SDS011;9269;50.838;12.094;2022-12-07T07:57:57;8.33;;;6.00;;
18286;SDS011;9269;50.838;12.094;2022-12-07T08:00:25;7.93;;;6.33;;
18286;SDS011;9269;50.838;12.094;2022-12-07T08:02:54;6.57;;;5.83;;
18286;SDS011;9269;50.838;12.094;2022-12-07T08:05:22;6.93;;;5.73;;
18286;SDS011;9269;50.838;12.094;2022-12-07T08:07:52;6.53;;;5.30;;
18286;SDS011;9269;50.838;12.094;2022-12-07T08:10:20;16.00;;;9.77;;
18286;SDS011;9269;50.838;12.094;2022-12-07T08:12:50;14.30;;;10.10;;
18286;SDS011;9269;50.838;12.094;2022-12-07T08:15:37;27.30;;;15.77;;
18286;SDS011;9269;50.838;12.094;2022-12-07T08:18:07;16.97;;;10.50;;
18286;SDS011;9269;50.838;12.094;2022-12-07T08:20:35;14.97;;;9.73;;
18286;SDS011;9269;50.838;12.094;2022-12-07T08:23:05;15.03;;;10.13;;
18286;SDS011;9269;50.838;12.094;2022-12-07T08:25:34;14.57;;;10.10;;
18286;SDS011;9269;50.838;12.094;2022-12-07T08:28:04;12.60;;;8.80;;
18286;SDS011;9269;50.838;12.094;2022-12-07T08:30:33;13.97;;;10.40;;
18286;SDS011;9269;50.838;12.094;2022-12-07T08:33:01;11.97;;;8.17;;
18286;SDS011;9269;50.838;12.094;2022-12-07T08:35:32;18.13;;;10.50;;
18286;SDS011;9269;50.838;12.094;2022-12-07T08:38:04;16.13;;;9.33;;
18286;SDS011;9269;50.838;12.094;2022-12-07T08:40:32;15.87;;;10.10;;
18286;SDS011;9269;50.838;12.094;2022-12-07T08:43:02;13.60;;;9.60;;
18286;SDS011;9269;50.838;12.094;2022-12-07T08:45:32;16.43;;;9.67;;
18286;SDS011;9269;50.838;12.094;2022-12-07T08:48:02;12.63;;;8.20;;
18286;SDS011;9269;50.838;12.094;2022-12-07T08:50:35;12.80;;;8.83;;
18286;SDS011;9269;50.838;12.094;2022-12-07T08:53:10;12.43;;;9.43;;
18286;SDS011;9269;50.838;12.094;2022-12-07T08:55:38;10.90;;;8.17;;
18286;SDS011;9269;50.838;12.094;2022-12-07T08:58:06;10.50;;;7.53;;
18286;SDS011;9269;50.838;12.094;2022-12-07T09:00:37;11.83;;;7.37;;
18286;SDS011;9269;50.838;12.094;2022-12-07T09:03:06;11.20;;;7.83;;
18286;SDS011;9269;50.838;12.094;2022-12-07T09:05:35;9.73;;;7.23;;
18286;SDS011;9269;50.838;12.094;2022-12-07T09:08:08;10.37;;;7.20;;
18286;SDS011;9269;50.838;12.094;2022-12-07T09:10:37;8.87;;;6.63;;
18286;SDS011;9269;50.838;12.094;2022-12-07T09:13:05;8.67;;;6.43;;
18286;SDS011;9269;50.838;12.094;2022-12-07T09:15:34;8.63;;;6.87;;
18286;SDS011;9269;50.838;12.094;2022-12-07T09:18:05;8.63;;;6.70;;
18286;SDS011;9269;50.838;12.094;2022-12-07T09:20:33;8.37;;;6.60;;
18286;SDS011;9269;50.838;12.094;2022-12-07T09:23:04;9.63;;;6.27;;
18286;SDS011;9269;50.838;12.094;2022-12-07T09:25:34;7.40;;;6.10;;
18286;SDS011;9269;50.838;12.094;2022-12-07T09:28:02;9.30;;;6.43;;
18286;SDS011;9269;50.838;12.094;2022-12-07T09:30:32;8.93;;;5.93;;
18286;SDS011;9269;50.838;12.094;2022-12-07T09:33:22;8.43;;;6.10;;
18286;SDS011;9269;50.838;12.094;2022-12-07T09:35:51;9.90;;;6.43;;
18286;SDS011;9269;50.838;12.094;2022-12-07T09:38:20;10.60;;;6.50;;
18286;SDS011;9269;50.838;12.094;2022-12-07T09:40:51;12.10;;;7.43;;
18286;SDS011;9269;50.838;12.094;2022-12-07T09:43:20;10.73;;;7.50;;
18286;SDS011;9269;50.838;12.094;2022-12-07T09:45:51;13.27;;;7.63;;
18286;SDS011;9269;50.838;12.094;2022-12-07T09:48:25;8.60;;;6.40;;
18286;SDS011;9269;50.838;12.094;2022-12-07T09:50:58;9.57;;;6.13;;
18286;SDS011;9269;50.838;12.094;2022-12-07T09:53:29;9.40;;;5.27;;
18286;SDS011;9269;50.838;12.094;2022-12-07T09:56:01;8.17;;;5.63;;
18286;SDS011;9269;50.838;12.094;2022-12-07T09:58:30;8.33;;;5.70;;
18286;SDS011;9269;50.838;12.094;2022-12-07T10:01:04;7.97;;;5.70;;
18286;SDS011;9269;50.838;12.094;2022-12-07T10:03:41;8.80;;;5.93;;
18286;SDS011;9269;50.838;12.094;2022-12-07T10:06:17;12.63;;;6.13;;
18286;SDS011;9269;50.838;12.094;2022-12-07T10:08:45;9.37;;;6.43;;
18286;SDS011;9269;50.838;12.094;2022-12-07T10:11:14;11.97;;;6.10;;
18286;SDS011;9269;50.838;12.094;2022-12-07T10:13:43;10.40;;;6.30;;
18286;SDS011;9269;50.838;12.094;2022-12-07T10:16:30;10.13;;;6.40;;
18286;SDS011;9269;50.838;12.094;2022-12-07T10:19:19;9.17;;;5.83;;
18286;SDS011;9269;50.838;12.094;2022-12-07T10:22:04;9.80;;;6.07;;
18286;SDS011;9269;50.838;12.094;2022-12-07T10:24:37;11.10;;;5.83;;
18286;SDS011;9269;50.838;12.094;2022-12-07T10:27:16;9.57;;;5.80;;
18286;SDS011;9269;50.838;12.094;2022-12-07T10:29:47;9.60;;;5.27;;
18286;SDS011;9269;50.838;12.094;2022-12-07T10:32:28;7.57;;;5.33;;
18286;SDS011;9269;50.838;12.094;2022-12-07T10:37:53;9.63;;;6.00;;
18286;SDS011;9269;50.838;12.094;2022-12-07T10:40:29;7.83;;;5.50;;
18286;SDS011;9269;50.838;12.094;2022-12-07T10:43:04;8.50;;;5.53;;
18286;SDS011;9269;50.838;12.094;2022-12-07T10:45:43;6.23;;;4.90;;
18286;SDS011;9269;50.838;12.094;2022-12-07T10:48:57;5.80;;;4.13;;
18286;SDS011;9269;50.838;12.094;2022-12-07T10:51:35;8.20;;;5.13;;
18286;SDS011;9269;50.838;12.094;2022-12-07T10:54:11;5.40;;;4.03;;
18286;SDS011;9269;50.838;12.094;2022-12-07T10:56:51;7.07;;;4.27;;
18286;SDS011;9269;50.838;12.094;2022-12-07T11:02:50;7.10;;;4.07;;
18286;SDS011;9269;50.838;12.094;2022-12-07T11:05:39;8.37;;;4.80;;
18286;SDS011;9269;50.838;12.094;2022-12-07T11:08:16;8.63;;;5.83;;
18286;SDS011;9269;50.838;12.094;2022-12-07T11:10:55;6.13;;;4.10;;
18286;SDS011;9269;50.838;12.094;2022-12-07T11:13:29;4.50;;;3.33;;
18286;SDS011;9269;50.838;12.094;2022-12-07T11:16:13;6.97;;;3.83;;
18286;SDS011;9269;50.838;12.094;2022-12-07T11:18:51;4.37;;;3.23;;
18286;SDS011;9269;50.838;12.094;2022-12-07T11:21:30;4.87;;;3.93;;
18286;SDS011;9269;50.838;12.094;2022-12-07T11:24:06;4.90;;;3.10;;
18286;SDS011;9269;50.838;12.094;2022-12-07T11:26:44;2.80;;;2.40;;
18286;SDS011;9269;50.838;12.094;2022-12-07T11:29:26;4.47;;;4.07;;
18286;SDS011;9269;50.838;12.094;2022-12-07T11:32:10;4.40;;;3.10;;
18286;SDS011;9269;50.838;12.094;2022-12-07T11:34:49;6.17;;;3.37;;
18286;SDS011;9269;50.838;12.094;2022-12-07T11:37:30;5.03;;;3.73;;
18286;SDS011;9269;50.838;12.094;2022-12-07T11:40:11;4.07;;;3.23;;
18286;SDS011;9269;50.838;12.094;2022-12-07T11:42:50;4.83;;;3.30;;
18286;SDS011;9269;50.838;12.094;2022-12-07T11:45:22;4.37;;;2.93;;
18286;SDS011;9269;50.838;12.094;2022-12-07T11:47:54;4.07;;;2.90;;
18286;SDS011;9269;50.838;12.094;2022-12-07T11:50:30;4.17;;;2.50;;
18286;SDS011;9269;50.838;12.094;2022-12-07T11:53:05;4.90;;;2.77;;
18286;SDS011;9269;50.838;12.094;2022-12-07T11:55:45;4.83;;;3.00;;
18286;SDS011;9269;50.838;12.094;2022-12-07T11:58:21;3.83;;;2.50;;
18286;SDS011;9269;50.838;12.094;2022-12-07T12:01:08;3.33;;;2.90;;
18286;SDS011;9269;50.838;12.094;2022-12-07T12:03:44;3.20;;;2.50;;
18286;SDS011;9269;50.838;12.094;2022-12-07T12:06:19;6.37;;;3.83;;
18286;SDS011;9269;50.838;12.094;2022-12-07T12:08:50;5.60;;;3.83;;
18286;SDS011;9269;50.838;12.094;2022-12-07T12:11:52;2.53;;;2.27;;
18286;SDS011;9269;50.838;12.094;2022-12-07T12:14:59;6.00;;;3.13;;
18286;SDS011;9269;50.838;12.094;2022-12-07T12:20:32;3.50;;;2.60;;
18286;SDS011;9269;50.838;12.094;2022-12-07T12:23:10;4.60;;;2.83;;
18286;SDS011;9269;50.838;12.094;2022-12-07T12:25:44;3.70;;;2.40;;
18286;SDS011;9269;50.838;12.094;2022-12-07T12:28:20;6.67;;;3.60;;
18286;SDS011;9269;50.838;12.094;2022-12-07T12:31:10;6.40;;;3.13;;
18286;SDS011;9269;50.838;12.094;2022-12-07T12:33:43;4.07;;;3.20;;
18286;SDS011;9269;50.838;12.094;2022-12-07T12:36:17;3.80;;;3.00;;
18286;SDS011;9269;50.838;12.094;2022-12-07T12:38:48;2.70;;;2.43;;
18286;SDS011;9269;50.838;12.094;2022-12-07T12:44:39;4.07;;;2.37;;
18286;SDS011;9269;50.838;12.094;2022-12-07T12:50:22;2.53;;;2.20;;
18286;SDS011;9269;50.838;12.094;2022-12-07T12:52:55;3.07;;;2.40;;
18286;SDS011;9269;50.838;12.094;2022-12-07T13:01:51;2.67;;;2.17;;
18286;SDS011;9269;50.838;12.094;2022-12-07T13:04:39;3.23;;;1.87;;
18286;SDS011;9269;50.838;12.094;2022-12-07T13:10:24;2.43;;;1.87;;
18286;SDS011;9269;50.838;12.094;2022-12-07T13:22:40;3.70;;;2.20;;
18286;SDS011;9269;50.838;12.094;2022-12-07T13:25:18;6.17;;;2.30;;
18286;SDS011;9269;50.838;12.094;2022-12-07T13:28:01;2.37;;;1.90;;
18286;SDS011;9269;50.838;12.094;2022-12-07T13:30:38;2.70;;;2.20;;
18286;SDS011;9269;50.838;12.094;2022-12-07T13:33:13;3.33;;;1.80;;
18286;SDS011;9269;50.838;12.094;2022-12-07T13:35:45;1.77;;;1.67;;
18286;SDS011;9269;50.838;12.094;2022-12-07T13:38:19;1.93;;;1.70;;
18286;SDS011;9269;50.838;12.094;2022-12-07T13:41:03;2.43;;;1.80;;
18286;SDS011;9269;50.838;12.094;2022-12-07T13:43:42;2.33;;;1.87;;
18286;SDS011;9269;50.838;12.094;2022-12-07T13:46:12;3.40;;;1.87;;
18286;SDS011;9269;50.838;12.094;2022-12-07T13:48:45;3.47;;;1.57;;
18286;SDS011;9269;50.838;12.094;2022-12-07T13:51:17;2.57;;;1.87;;
18286;SDS011;9269;50.838;12.094;2022-12-07T13:53:50;3.87;;;1.90;;
18286;SDS011;9269;50.838;12.094;2022-12-07T13:56:31;2.93;;;1.77;;
18286;SDS011;9269;50.838;12.094;2022-12-07T13:59:02;2.70;;;1.90;;
18286;SDS011;9269;50.838;12.094;2022-12-07T14:01:33;1.93;;;1.50;;
18286;SDS011;9269;50.838;12.094;2022-12-07T14:07:18;1.87;;;1.47;;
18286;SDS011;9269;50.838;12.094;2022-12-07T14:09:57;1.93;;;1.30;;
18286;SDS011;9269;50.838;12.094;2022-12-07T14:12:28;1.83;;;1.40;;
18286;SDS011;9269;50.838;12.094;2022-12-07T14:14:58;3.03;;;1.47;;
18286;SDS011;9269;50.838;12.094;2022-12-07T14:17:29;2.10;;;1.63;;
18286;SDS011;9269;50.838;12.094;2022-12-07T14:19:58;2.20;;;1.50;;
18286;SDS011;9269;50.838;12.094;2022-12-07T14:22:30;2.20;;;1.50;;
18286;SDS011;9269;50.838;12.094;2022-12-07T14:25:22;1.87;;;1.77;;
18286;SDS011;9269;50.838;12.094;2022-12-07T14:27:54;3.27;;;1.83;;
18286;SDS011;9269;50.838;12.094;2022-12-07T14:30:26;2.53;;;1.90;;
18286;SDS011;9269;50.838;12.094;2022-12-07T14:32:57;2.30;;;1.80;;
18286;SDS011;9269;50.838;12.094;2022-12-07T14:35:28;4.27;;;2.13;;
18286;SDS011;9269;50.838;12.094;2022-12-07T14:37:58;2.63;;;1.80;;
18286;SDS011;9269;50.838;12.094;2022-12-07T14:40:29;2.50;;;1.93;;
18286;SDS011;9269;50.838;12.094;2022-12-07T14:43:00;10.73;;;6.67;;
18286;SDS011;9269;50.838;12.094;2022-12-07T14:45:33;19.87;;;11.97;;
18286;SDS011;9269;50.838;12.094;2022-12-07T14:48:04;5.40;;;3.73;;
18286;SDS011;9269;50.838;12.094;2022-12-07T14:50:53;8.00;;;4.13;;
18286;SDS011;9269;50.838;12.094;2022-12-07T14:53:42;3.77;;;3.10;;
18286;SDS011;9269;50.838;12.094;2022-12-07T14:56:22;4.07;;;3.10;;
18286;SDS011;9269;50.838;12.094;2022-12-07T14:58:51;4.43;;;2.30;;
18286;SDS011;9269;50.838;12.094;2022-12-07T15:01:19;3.27;;;2.20;;
18286;SDS011;9269;50.838;12.094;2022-12-07T15:03:48;3.83;;;2.50;;
18286;SDS011;9269;50.838;12.094;2022-12-07T15:06:17;3.30;;;2.47;;
18286;SDS011;9269;50.838;12.094;2022-12-07T15:08:46;3.60;;;3.23;;
18286;SDS011;9269;50.838;12.094;2022-12-07T15:11:15;4.03;;;3.20;;
18286;SDS011;9269;50.838;12.094;2022-12-07T15:13:46;3.77;;;3.20;;
18286;SDS011;9269;50.838;12.094;2022-12-07T15:16:32;3.80;;;3.50;;
18286;SDS011;9269;50.838;12.094;2022-12-07T15:19:22;3.33;;;3.03;;
18286;SDS011;9269;50.838;12.094;2022-12-07T15:21:55;3.13;;;2.30;;
18286;SDS011;9269;50.838;12.094;2022-12-07T15:24:25;3.33;;;2.20;;
18286;SDS011;9269;50.838;12.094;2022-12-07T15:26:54;4.07;;;2.70;;
18286;SDS011;9269;50.838;12.094;2022-12-07T15:29:24;2.80;;;2.27;;
18286;SDS011;9269;50.838;12.094;2022-12-07T15:31:53;2.83;;;1.90;;
18286;SDS011;9269;50.838;12.094;2022-12-07T15:34:24;2.10;;;1.83;;
18286;SDS011;9269;50.838;12.094;2022-12-07T15:37:01;3.07;;;2.10;;
18286;SDS011;9269;50.838;12.094;2022-12-07T15:42:09;2.83;;;2.10;;
18286;SDS011;9269;50.838;12.094;2022-12-07T15:44:39;4.03;;;2.50;;
18286;SDS011;9269;50.838;12.094;2022-12-07T15:47:26;6.80;;;5.73;;
18286;SDS011;9269;50.838;12.094;2022-12-07T15:49:55;4.27;;;3.23;;
18286;SDS011;9269;50.838;12.094;2022-12-07T15:52:23;3.73;;;2.87;;
18286;SDS011;9269;50.838;12.094;2022-12-07T15:54:52;4.10;;;2.37;;
18286;SDS011;9269;50.838;12.094;2022-12-07T15:57:21;3.90;;;2.63;;
18286;SDS011;9269;50.838;12.094;2022-12-07T15:59:56;3.13;;;2.27;;
18286;SDS011;9269;50.838;12.094;2022-12-07T16:02:28;3.17;;;2.20;;
18286;SDS011;9269;50.838;12.094;2022-12-07T16:05:06;3.10;;;2.17;;